createdAt,value
2022-10-08T00:00:01.812Z,12.42
2022-10-08T00:02:43.125Z,12.39
2022-10-08T00:05:14.930Z,12.38
2022-10-08T00:07:47.999Z,12.36
2022-10-08T00:10:19.603Z,12.35
2022-10-08T00:12:51.456Z,12.34
2022-10-08T00:15:26.161Z,12.29
2022-10-08T00:17:57.893Z,12.28
2022-10-08T00:20:29.533Z,12.27
2022-10-08T00:23:02.079Z,12.27
2022-10-08T00:25:42.465Z,12.26
2022-10-08T00:28:19.269Z,12.24
2022-10-08T00:30:50.943Z,12.22
2022-10-08T00:33:22.760Z,12.21
2022-10-08T00:35:54.549Z,12.20
2022-10-08T00:38:27.689Z,12.17
2022-10-08T00:41:02.407Z,12.17
2022-10-08T00:43:40.632Z,12.14
2022-10-08T00:46:47.095Z,12.14
2022-10-08T00:49:27.612Z,12.12
2022-10-08T00:52:04.595Z,12.08
2022-10-08T00:54:39.113Z,12.07
2022-10-08T00:57:12.681Z,12.06
2022-10-08T00:59:44.529Z,12.04
2022-10-08T01:02:22.244Z,12.01
2022-10-08T01:04:54.058Z,11.99
2022-10-08T01:07:44.948Z,11.97
2022-10-08T01:10:25.406Z,11.97
2022-10-08T01:13:25.260Z,11.96
2022-10-08T01:16:01.011Z,11.93
2022-10-08T01:18:50.741Z,11.92
2022-10-08T01:21:47.572Z,11.93
2022-10-08T01:25:13.186Z,11.94
2022-10-08T01:27:55.743Z,11.90
2022-10-08T01:30:30.357Z,11.89
2022-10-08T01:33:15.040Z,11.87
2022-10-08T01:35:53.836Z,11.88
2022-10-08T01:38:29.746Z,11.87
2022-10-08T01:41:07.748Z,11.90
2022-10-08T01:43:50.769Z,11.92
2022-10-08T01:46:27.093Z,11.93
2022-10-08T01:49:13.696Z,11.91
2022-10-08T01:51:53.997Z,11.90
2022-10-08T01:54:30.443Z,11.88
2022-10-08T01:57:05.810Z,11.88
2022-10-08T01:59:42.941Z,11.89
2022-10-08T02:02:20.529Z,11.89
2022-10-08T02:04:57.908Z,11.90
2022-10-08T02:07:40.058Z,11.88
2022-10-08T02:10:15.283Z,11.83
2022-10-08T02:12:47.126Z,11.77
2022-10-08T02:15:23.504Z,11.67
2022-10-08T02:17:58.593Z,11.63
2022-10-08T02:20:45.374Z,11.64
2022-10-08T02:23:29.802Z,11.61
2022-10-08T02:26:04.433Z,11.51
2022-10-08T02:29:13.460Z,11.41
2022-10-08T02:31:50.626Z,11.28
2022-10-08T02:34:28.976Z,11.23
2022-10-08T02:37:10.700Z,11.19
2022-10-08T02:39:48.206Z,11.16
2022-10-08T02:42:24.885Z,11.11
2022-10-08T02:45:07.587Z,11.13
2022-10-08T02:47:43.600Z,11.17
2022-10-08T02:50:20.638Z,11.15
2022-10-08T02:52:56.225Z,11.19
2022-10-08T02:55:57.082Z,11.22
2022-10-08T02:58:32.086Z,11.21
2022-10-08T03:01:10.439Z,11.21
2022-10-08T03:03:55.271Z,11.26
2022-10-08T03:06:30.102Z,11.30
2022-10-08T03:09:08.932Z,11.34
2022-10-08T03:11:41.397Z,11.35
2022-10-08T03:14:18.342Z,11.40
2022-10-08T03:16:54.209Z,11.43
2022-10-08T03:19:28.685Z,11.41
2022-10-08T03:22:02.131Z,11.35
2022-10-08T03:24:35.203Z,11.26
2022-10-08T03:27:06.926Z,11.25
2022-10-08T03:29:38.631Z,11.20
2022-10-08T03:32:10.574Z,11.21
2022-10-08T03:34:42.887Z,11.22
2022-10-08T03:37:14.549Z,11.24
2022-10-08T03:39:46.540Z,11.25
2022-10-08T03:42:18.263Z,11.25
2022-10-08T03:44:49.953Z,11.28
2022-10-08T03:47:21.711Z,11.25
2022-10-08T03:49:55.574Z,11.24
2022-10-08T03:52:27.539Z,11.26
2022-10-08T03:55:01.220Z,11.26
2022-10-08T03:57:33.502Z,11.23
2022-10-08T04:00:05.766Z,11.22
2022-10-08T04:02:37.901Z,11.20
2022-10-08T04:05:12.868Z,11.18
2022-10-08T04:07:44.575Z,11.21
2022-10-08T04:10:19.490Z,11.19
2022-10-08T04:12:51.180Z,11.22
2022-10-08T04:15:22.830Z,11.25
2022-10-08T04:17:54.582Z,11.28
2022-10-08T04:20:26.506Z,11.31
2022-10-08T04:23:00.954Z,11.33
2022-10-08T04:25:32.863Z,11.30
2022-10-08T04:28:06.063Z,11.35
2022-10-08T04:30:41.917Z,11.41
2022-10-08T04:33:13.648Z,11.46
2022-10-08T04:35:45.438Z,11.48
2022-10-08T04:38:17.329Z,11.52
2022-10-08T04:40:52.213Z,11.55
2022-10-08T04:43:24.133Z,11.52
2022-10-08T04:45:55.971Z,11.53
2022-10-08T04:48:28.748Z,11.56
2022-10-08T04:51:08.033Z,11.55
2022-10-08T04:53:42.494Z,11.56
2022-10-08T04:56:20.495Z,11.53
2022-10-08T04:58:55.094Z,11.51
2022-10-08T05:01:27.955Z,11.53
2022-10-08T05:03:59.970Z,11.50
2022-10-08T05:06:32.102Z,11.50
2022-10-08T05:09:04.678Z,11.49
2022-10-08T05:11:36.324Z,11.45
2022-10-08T05:14:08.342Z,11.48
2022-10-08T05:16:40.001Z,11.51
2022-10-08T05:19:11.649Z,11.52
2022-10-08T05:21:44.335Z,11.58
2022-10-08T05:24:16.048Z,11.58
2022-10-08T05:26:58.617Z,11.66
2022-10-08T05:29:32.975Z,11.72
2022-10-08T05:32:04.955Z,11.79
2022-10-08T05:34:36.824Z,11.87
2022-10-08T05:37:08.567Z,11.95
2022-10-08T05:39:40.248Z,12.02
2022-10-08T05:42:14.776Z,12.13
2022-10-08T05:44:46.429Z,12.22
2022-10-08T05:47:18.183Z,12.35
2022-10-08T05:49:49.831Z,12.44
2022-10-08T05:52:21.586Z,12.54
2022-10-08T05:54:53.284Z,12.54
2022-10-08T05:57:24.976Z,12.52
2022-10-08T05:59:56.909Z,12.61
2022-10-08T06:02:28.752Z,12.73
2022-10-08T06:05:00.457Z,12.75
2022-10-08T06:07:32.158Z,12.78
2022-10-08T06:10:04.237Z,12.77
2022-10-08T06:12:38.006Z,12.78
2022-10-08T06:15:10.210Z,12.78
2022-10-08T06:17:43.925Z,12.62
2022-10-08T06:20:15.696Z,12.58
2022-10-08T06:22:47.848Z,12.64
2022-10-08T06:25:22.479Z,12.69
2022-10-08T06:27:54.254Z,12.73
2022-10-08T06:30:26.155Z,12.84
2022-10-08T06:32:57.975Z,12.95
2022-10-08T06:35:30.252Z,13.05
2022-10-08T06:38:02.836Z,13.07
2022-10-08T06:40:39.020Z,13.10
2022-10-08T06:43:16.633Z,13.12
2022-10-08T06:45:48.328Z,13.13
2022-10-08T06:48:20.054Z,13.23
2022-10-08T06:51:01.666Z,13.35
2022-10-08T06:53:34.802Z,13.39
2022-10-08T06:56:10.795Z,13.41
2022-10-08T06:58:44.923Z,13.45
2022-10-08T07:01:23.375Z,13.44
2022-10-08T07:04:00.556Z,13.39
2022-10-08T07:06:32.422Z,13.43
2022-10-08T07:09:05.390Z,13.56
2022-10-08T07:11:38.373Z,13.60
2022-10-08T07:14:11.102Z,13.63
2022-10-08T07:16:42.828Z,13.67
2022-10-08T07:19:15.311Z,13.81
2022-10-08T07:21:47.052Z,13.98
2022-10-08T07:24:18.799Z,14.09
2022-10-08T07:26:50.532Z,14.13
2022-10-08T07:29:24.702Z,14.15
2022-10-08T07:31:56.449Z,14.18
2022-10-08T07:34:32.950Z,14.30
2022-10-08T07:37:04.631Z,14.38
2022-10-08T07:39:36.780Z,14.48
2022-10-08T07:42:08.406Z,14.59
2022-10-08T07:44:40.212Z,14.56
2022-10-08T07:47:11.832Z,14.61
2022-10-08T07:49:45.572Z,14.67
2022-10-08T07:52:18.497Z,14.62
2022-10-08T07:54:50.195Z,14.58
2022-10-08T07:57:21.915Z,14.67
2022-10-08T07:59:56.376Z,14.79
2022-10-08T08:02:28.477Z,14.83
2022-10-08T08:05:00.371Z,14.77
2022-10-08T08:07:31.963Z,14.86
2022-10-08T08:10:04.110Z,14.96
2022-10-08T08:12:35.773Z,15.00
2022-10-08T08:15:09.080Z,15.07
2022-10-08T08:17:40.934Z,15.17
2022-10-08T08:20:12.780Z,15.31
2022-10-08T08:22:44.697Z,15.43
2022-10-08T08:25:17.027Z,15.56
2022-10-08T08:27:48.999Z,15.59
2022-10-08T08:30:20.811Z,15.65
2022-10-08T08:32:52.922Z,15.72
2022-10-08T08:35:27.671Z,15.80
2022-10-08T08:37:59.415Z,15.86
2022-10-08T08:40:31.087Z,15.98
2022-10-08T08:43:02.760Z,16.12
2022-10-08T08:45:51.874Z,16.21
2022-10-08T08:48:33.208Z,16.47
2022-10-08T08:51:05.135Z,16.62
2022-10-08T08:53:36.804Z,16.68
2022-10-08T08:56:13.109Z,16.83
2022-10-08T08:59:18.246Z,17.07
2022-10-08T09:01:51.233Z,17.32
2022-10-08T09:04:48.909Z,17.53
2022-10-08T09:07:26.263Z,17.65
2022-10-08T09:09:59.515Z,17.76
2022-10-08T09:12:37.890Z,17.66
2022-10-08T09:15:23.890Z,17.64
2022-10-08T09:17:55.630Z,17.57
2022-10-08T09:20:28.711Z,17.53
2022-10-08T09:23:00.594Z,17.54
2022-10-08T09:25:34.376Z,17.53
2022-10-08T09:28:07.304Z,17.46
2022-10-08T09:30:42.849Z,17.42
2022-10-08T09:33:18.608Z,17.44
2022-10-08T09:35:52.591Z,17.49
2022-10-08T09:38:32.724Z,17.52
2022-10-08T09:41:17.820Z,17.53
2022-10-08T09:44:11.434Z,17.55
2022-10-08T09:46:46.889Z,17.52
2022-10-08T09:49:35.273Z,17.55
2022-10-08T09:52:22.298Z,17.52
2022-10-08T09:55:02.188Z,17.59
2022-10-08T09:57:44.027Z,17.52
2022-10-08T10:00:37.174Z,17.55
2022-10-08T10:03:17.944Z,17.58
2022-10-08T10:05:55.285Z,17.62
2022-10-08T10:08:53.105Z,17.67
2022-10-08T10:11:31.419Z,17.72
2022-10-08T10:14:26.130Z,17.76
2022-10-08T10:17:05.811Z,17.76
2022-10-08T10:20:05.219Z,17.79
2022-10-08T10:22:54.260Z,17.87
2022-10-08T10:25:33.066Z,17.93
2022-10-08T10:28:13.569Z,17.97
2022-10-08T10:30:53.102Z,17.93
2022-10-08T10:33:32.554Z,17.97
2022-10-08T10:36:09.595Z,18.04
2022-10-08T10:38:52.234Z,18.11
2022-10-08T10:42:02.085Z,18.28
2022-10-08T10:44:52.565Z,18.47
2022-10-08T10:47:32.065Z,18.57
2022-10-08T10:50:06.004Z,18.72
2022-10-08T10:53:05.744Z,18.86
2022-10-08T10:55:44.745Z,18.92
2022-10-08T10:58:37.798Z,18.83
2022-10-08T11:01:12.578Z,18.84
2022-10-08T11:04:01.481Z,18.92
2022-10-08T11:06:56.429Z,18.93
2022-10-08T11:09:34.400Z,19.00
2022-10-08T11:12:46.272Z,19.00
2022-10-08T11:15:26.659Z,19.02
2022-10-08T11:18:14.510Z,19.02
2022-10-08T11:21:07.236Z,19.06
2022-10-08T11:23:45.219Z,19.07
2022-10-08T11:26:22.835Z,19.13
2022-10-08T11:29:04.705Z,19.20
2022-10-08T11:31:49.230Z,19.19
2022-10-08T11:34:29.828Z,19.14
2022-10-08T11:37:20.986Z,19.12
2022-10-08T11:40:15.707Z,19.10
2022-10-08T11:43:08.643Z,19.13
2022-10-08T11:45:43.144Z,19.08
2022-10-08T11:48:29.001Z,19.08
2022-10-08T11:51:20.160Z,18.99
2022-10-08T11:54:03.712Z,18.95
2022-10-08T11:56:39.155Z,18.91
2022-10-08T11:59:28.193Z,18.88
2022-10-08T12:02:18.795Z,18.86
2022-10-08T12:04:55.797Z,18.81
2022-10-08T12:07:33.219Z,18.78
2022-10-08T12:10:20.030Z,18.70
2022-10-08T12:12:51.859Z,18.56
2022-10-08T12:15:23.648Z,18.52
2022-10-08T12:17:58.020Z,18.52
2022-10-08T12:20:37.709Z,18.64
2022-10-08T12:23:34.462Z,18.70
2022-10-08T12:26:10.272Z,18.73
2022-10-08T12:28:50.991Z,18.83
2022-10-08T12:31:40.208Z,18.83
2022-10-08T12:34:17.969Z,18.77
2022-10-08T12:37:13.513Z,18.74
2022-10-08T12:39:53.573Z,18.69
2022-10-08T12:42:34.337Z,18.60
2022-10-08T12:45:25.989Z,18.58
2022-10-08T12:48:19.458Z,18.70
2022-10-08T12:51:13.145Z,18.76
2022-10-08T12:53:48.686Z,18.72
2022-10-08T12:56:28.171Z,18.65
2022-10-08T12:59:03.670Z,18.72
2022-10-08T13:01:42.969Z,18.74
2022-10-08T13:04:18.570Z,18.78
2022-10-08T13:06:52.761Z,18.78
2022-10-08T13:09:27.746Z,18.71
2022-10-08T13:12:05.938Z,18.68
2022-10-08T13:14:39.528Z,18.70
2022-10-08T13:17:43.618Z,18.79
2022-10-08T13:20:21.902Z,18.86
2022-10-08T13:22:53.694Z,18.91
2022-10-08T13:25:31.480Z,18.94
2022-10-08T13:28:41.827Z,18.92
2022-10-08T13:31:23.273Z,18.77
2022-10-08T13:33:55.117Z,18.79
2022-10-08T13:36:26.754Z,18.83
2022-10-08T13:38:58.649Z,18.86
2022-10-08T13:41:30.327Z,18.88
2022-10-08T13:44:06.762Z,18.91
2022-10-08T13:46:42.455Z,18.88
2022-10-08T13:49:23.094Z,18.88
2022-10-08T13:51:58.731Z,18.87
2022-10-08T13:54:34.127Z,18.88
2022-10-08T13:57:08.598Z,18.89
2022-10-08T13:59:40.439Z,18.89
2022-10-08T14:02:14.312Z,18.89
2022-10-08T14:04:47.106Z,18.92
2022-10-08T14:07:31.123Z,18.92
2022-10-08T14:10:04.047Z,18.93
2022-10-08T14:12:35.761Z,18.88
2022-10-08T14:15:10.253Z,18.86
2022-10-08T14:17:42.035Z,18.85
2022-10-08T14:20:16.690Z,18.84
2022-10-08T14:22:48.355Z,18.81
2022-10-08T14:25:23.520Z,18.78
2022-10-08T14:27:55.209Z,18.75
2022-10-08T14:30:28.124Z,18.74
2022-10-08T14:32:59.888Z,18.76
2022-10-08T14:35:31.789Z,18.75
2022-10-08T14:38:03.850Z,18.73
2022-10-08T14:40:35.888Z,18.75
2022-10-08T14:43:07.899Z,18.74
2022-10-08T14:45:39.819Z,18.75
2022-10-08T14:48:11.644Z,18.76
2022-10-08T14:50:43.350Z,18.69
2022-10-08T14:53:15.051Z,18.65
2022-10-08T14:56:10.490Z,18.63
2022-10-08T14:58:40.595Z,18.53
2022-10-08T15:01:12.506Z,18.46
2022-10-08T15:03:45.758Z,18.46
2022-10-08T15:06:17.580Z,18.48
2022-10-08T15:08:49.409Z,18.52
2022-10-08T15:11:21.131Z,18.55
2022-10-08T15:13:53.773Z,18.48
2022-10-08T15:16:25.872Z,18.39
2022-10-08T15:18:57.581Z,18.36
2022-10-08T15:21:29.355Z,18.40
2022-10-08T15:24:01.072Z,18.45
2022-10-08T15:26:33.849Z,18.47
2022-10-08T15:29:05.510Z,18.44
2022-10-08T15:31:37.318Z,18.37
2022-10-08T15:34:16.388Z,18.34
2022-10-08T15:36:48.398Z,18.28
2022-10-08T15:39:20.701Z,18.24
2022-10-08T15:41:54.474Z,18.23
2022-10-08T15:44:31.545Z,18.18
2022-10-08T15:47:07.300Z,18.17
2022-10-08T15:49:41.832Z,18.11
2022-10-08T15:52:15.058Z,17.96
2022-10-08T15:54:47.522Z,17.79
2022-10-08T15:57:19.418Z,17.65
2022-10-08T15:59:51.079Z,17.66
2022-10-08T16:02:25.054Z,17.77
2022-10-08T16:04:57.123Z,17.80
2022-10-08T16:07:32.088Z,17.74
2022-10-08T16:10:04.191Z,17.73
2022-10-08T16:12:35.837Z,17.63
2022-10-08T16:15:09.347Z,17.59
2022-10-08T16:17:41.063Z,17.54
2022-10-08T16:20:12.782Z,17.49
2022-10-08T16:22:47.007Z,17.45
2022-10-08T16:25:18.918Z,17.45
2022-10-08T16:27:50.970Z,17.44
2022-10-08T16:30:22.962Z,17.44
2022-10-08T16:32:56.682Z,17.42
2022-10-08T16:35:28.368Z,17.36
2022-10-08T16:38:00.057Z,17.30
2022-10-08T16:40:31.755Z,17.28
2022-10-08T16:43:03.615Z,17.26
2022-10-08T16:45:39.581Z,17.24
2022-10-08T16:48:11.394Z,17.20
2022-10-08T16:50:43.067Z,17.16
2022-10-08T16:53:19.088Z,17.13
2022-10-08T16:55:50.578Z,17.07
2022-10-08T16:58:22.294Z,17.02
2022-10-08T17:00:53.999Z,16.96
2022-10-08T17:03:25.995Z,16.91
2022-10-08T17:05:57.935Z,16.86
2022-10-08T17:08:32.832Z,16.80
2022-10-08T17:11:09.859Z,16.74
2022-10-08T17:13:47.310Z,16.65
2022-10-08T17:16:20.796Z,16.59
2022-10-08T17:18:54.318Z,16.52
2022-10-08T17:21:30.525Z,16.44
2022-10-08T17:24:03.042Z,16.36
2022-10-08T17:26:35.075Z,16.27
2022-10-08T17:29:09.578Z,16.18
2022-10-08T17:31:41.738Z,16.08
2022-10-08T17:34:13.456Z,16.00
2022-10-08T17:36:45.177Z,15.91
2022-10-08T17:39:16.859Z,15.81
2022-10-08T17:41:48.659Z,15.72
2022-10-08T17:44:20.425Z,15.65
2022-10-08T17:46:52.172Z,15.57
2022-10-08T17:49:24.109Z,15.49
2022-10-08T17:51:55.764Z,15.43
2022-10-08T17:54:27.543Z,15.36
2022-10-08T17:56:59.999Z,15.28
2022-10-08T17:59:31.900Z,15.24
2022-10-08T18:02:03.762Z,15.23
2022-10-08T18:04:35.562Z,15.18
2022-10-08T18:07:07.316Z,15.20
2022-10-08T18:09:39.028Z,15.15
2022-10-08T18:12:10.982Z,15.25
2022-10-08T18:14:45.610Z,15.16
2022-10-08T18:17:17.074Z,15.13
2022-10-08T18:19:49.094Z,15.08
2022-10-08T18:22:22.918Z,15.12
2022-10-08T18:24:54.687Z,15.14
2022-10-08T18:27:26.328Z,15.13
2022-10-08T18:29:58.040Z,15.12
2022-10-08T18:32:29.746Z,15.14
2022-10-08T18:35:01.498Z,15.26
2022-10-08T18:37:33.181Z,15.23
2022-10-08T18:40:06.494Z,15.22
2022-10-08T18:42:38.291Z,15.08
2022-10-08T18:45:12.429Z,15.00
2022-10-08T18:47:44.308Z,14.94
2022-10-08T18:50:16.063Z,15.03
2022-10-08T18:52:47.995Z,15.00
2022-10-08T18:55:19.817Z,14.93
2022-10-08T18:57:53.268Z,14.87
2022-10-08T19:00:24.962Z,14.89
2022-10-08T19:02:59.708Z,14.82
2022-10-08T19:05:31.517Z,14.78
2022-10-08T19:08:04.220Z,14.71
2022-10-08T19:10:36.052Z,14.71
2022-10-08T19:13:07.804Z,14.69
2022-10-08T19:15:39.764Z,14.67
2022-10-08T19:18:11.450Z,14.59
2022-10-08T19:20:43.096Z,14.46
2022-10-08T19:23:15.091Z,14.40
2022-10-08T19:25:47.081Z,14.32
2022-10-08T19:28:18.964Z,14.33
2022-10-08T19:30:50.769Z,14.39
2022-10-08T19:33:22.834Z,14.39
2022-10-08T19:36:00.975Z,14.30
2022-10-08T19:38:32.615Z,14.18
2022-10-08T19:41:08.890Z,14.14
2022-10-08T19:43:43.413Z,14.13
2022-10-08T19:46:15.062Z,14.10
2022-10-08T19:48:51.375Z,14.11
2022-10-08T19:51:24.730Z,14.20
2022-10-08T19:53:57.658Z,14.20
2022-10-08T19:56:31.026Z,14.20
2022-10-08T19:59:03.191Z,14.18
2022-10-08T20:01:37.250Z,14.21
2022-10-08T20:04:11.061Z,14.17
2022-10-08T20:06:44.721Z,14.16
2022-10-08T20:09:16.806Z,14.11
2022-10-08T20:11:48.520Z,14.12
2022-10-08T20:14:20.907Z,14.15
2022-10-08T20:16:52.672Z,14.13
2022-10-08T20:19:27.067Z,14.06
2022-10-08T20:21:58.827Z,14.05
2022-10-08T20:24:36.531Z,14.08
2022-10-08T20:27:08.271Z,14.02
2022-10-08T20:29:39.950Z,13.96
2022-10-08T20:32:12.228Z,13.94
2022-10-08T20:34:46.820Z,13.90
2022-10-08T20:37:18.577Z,13.86
2022-10-08T20:39:50.236Z,13.83
2022-10-08T20:42:23.488Z,13.83
2022-10-08T20:44:55.562Z,13.81
2022-10-08T20:47:27.311Z,13.79
2022-10-08T20:49:59.004Z,13.77
2022-10-08T20:52:30.800Z,13.66
2022-10-08T20:55:06.363Z,13.64
2022-10-08T20:57:38.130Z,13.65
2022-10-08T21:00:10.363Z,13.65
2022-10-08T21:02:42.047Z,13.65
2022-10-08T21:05:14.458Z,13.66
2022-10-08T21:07:46.284Z,13.62
2022-10-08T21:10:21.954Z,13.55
2022-10-08T21:12:56.257Z,13.55
2022-10-08T21:15:27.982Z,13.46
2022-10-08T21:17:59.725Z,13.34
2022-10-08T21:20:35.315Z,13.33
2022-10-08T21:23:09.985Z,13.33
2022-10-08T21:25:41.819Z,13.31
2022-10-08T21:28:13.702Z,13.31
2022-10-08T21:30:55.716Z,13.19
2022-10-08T21:33:27.514Z,13.13
2022-10-08T21:35:59.235Z,13.10
2022-10-08T21:38:31.156Z,13.04
2022-10-08T21:41:11.690Z,13.00
2022-10-08T21:43:51.919Z,12.93
2022-10-08T21:46:26.469Z,12.92
2022-10-08T21:49:00.729Z,12.91
2022-10-08T21:51:33.725Z,12.88
2022-10-08T21:54:06.779Z,12.86
2022-10-08T21:56:40.019Z,12.85
2022-10-08T21:59:14.608Z,12.83
2022-10-08T22:01:50.637Z,12.81
2022-10-08T22:04:24.601Z,12.78
2022-10-08T22:07:01.872Z,12.75
2022-10-08T22:09:34.870Z,12.70
2022-10-08T22:12:06.646Z,12.67
2022-10-08T22:14:38.435Z,12.63
2022-10-08T22:17:10.135Z,12.59
2022-10-08T22:19:41.839Z,12.54
2022-10-08T22:22:13.473Z,12.50
2022-10-08T22:24:45.145Z,12.47
2022-10-08T22:27:16.795Z,12.40
2022-10-08T22:29:48.499Z,12.34
2022-10-08T22:32:23.139Z,12.29
2022-10-08T22:34:54.693Z,12.24
2022-10-08T22:37:26.380Z,12.21
2022-10-08T22:39:58.252Z,12.17
2022-10-08T22:42:31.037Z,12.10
2022-10-08T22:45:03.029Z,12.06
2022-10-08T22:47:37.701Z,12.01
2022-10-08T22:50:09.641Z,11.96
2022-10-08T22:52:41.291Z,11.92
2022-10-08T22:55:14.908Z,11.88
2022-10-08T22:57:49.988Z,11.83
2022-10-08T23:00:21.665Z,11.80
2022-10-08T23:02:53.352Z,11.78
2022-10-08T23:05:25.030Z,11.72
2022-10-08T23:07:57.257Z,11.70
2022-10-08T23:10:28.948Z,11.67
2022-10-08T23:13:01.812Z,11.65
2022-10-08T23:15:33.510Z,11.61
2022-10-08T23:18:08.152Z,11.59
2022-10-08T23:20:39.712Z,11.54
2022-10-08T23:23:11.375Z,11.53
2022-10-08T23:25:59.125Z,11.48
2022-10-08T23:28:33.070Z,11.44
2022-10-08T23:31:08.216Z,11.41
2022-10-08T23:33:43.812Z,11.39
2022-10-08T23:36:24.445Z,11.34
2022-10-08T23:38:58.911Z,11.31
2022-10-08T23:41:30.804Z,11.28
2022-10-08T23:44:05.538Z,11.25
2022-10-08T23:46:37.055Z,11.21
2022-10-08T23:49:08.842Z,11.19
2022-10-08T23:51:40.660Z,11.16
2022-10-08T23:54:12.394Z,11.11
2022-10-08T23:56:44.144Z,11.08
2022-10-08T23:59:15.861Z,11.05
